createdAt,value
2023-01-25T00:00:56.875Z,1017.50
2023-01-25T00:01:56.873Z,1017.51
2023-01-25T00:02:56.895Z,1017.45
2023-01-25T00:03:56.810Z,1017.47
2023-01-25T00:04:56.814Z,1017.48
2023-01-25T00:05:56.793Z,1017.49
2023-01-25T00:06:56.814Z,1017.50
2023-01-25T00:07:56.785Z,1017.50
2023-01-25T00:08:56.780Z,1017.47
2023-01-25T00:09:56.755Z,1017.45
2023-01-25T00:10:58.443Z,1017.42
2023-01-25T00:11:56.750Z,1017.45
2023-01-25T00:12:56.719Z,1017.50
2023-01-25T00:13:56.696Z,1017.48
2023-01-25T00:14:56.693Z,1017.47
2023-01-25T00:15:56.688Z,1017.44
2023-01-25T00:16:56.747Z,1017.45
2023-01-25T00:17:56.665Z,1017.46
2023-01-25T00:18:56.661Z,1017.41
2023-01-25T00:19:56.660Z,1017.45
2023-01-25T00:20:56.623Z,1017.43
2023-01-25T00:21:56.620Z,1017.43
2023-01-25T00:22:56.622Z,1017.47
2023-01-25T00:23:56.651Z,1017.44
2023-01-25T00:24:56.609Z,1017.47
2023-01-25T00:25:57.786Z,1017.48
2023-01-25T00:26:56.576Z,1017.41
2023-01-25T00:27:56.584Z,1017.44
2023-01-25T00:28:56.606Z,1017.44
2023-01-25T00:29:56.527Z,1017.41
2023-01-25T00:30:56.534Z,1017.40
2023-01-25T00:31:56.716Z,1017.39
2023-01-25T00:32:56.518Z,1017.39
2023-01-25T00:33:56.507Z,1017.35
2023-01-25T00:34:56.475Z,1017.34
2023-01-25T00:35:56.459Z,1017.36
2023-01-25T00:36:56.446Z,1017.32
2023-01-25T00:37:56.431Z,1017.30
2023-01-25T00:38:56.452Z,1017.32
2023-01-25T00:39:56.418Z,1017.31
2023-01-25T00:40:56.445Z,1017.28
2023-01-25T00:41:56.493Z,1017.33
2023-01-25T00:42:56.387Z,1017.26
2023-01-25T00:43:56.403Z,1017.29
2023-01-25T00:44:56.364Z,1017.27
2023-01-25T00:45:56.404Z,1017.27
2023-01-25T00:46:56.348Z,1017.22
2023-01-25T00:47:56.377Z,1017.23
2023-01-25T00:48:56.331Z,1017.20
2023-01-25T00:49:56.324Z,1017.18
2023-01-25T00:50:56.296Z,1017.23
2023-01-25T00:51:56.284Z,1017.18
2023-01-25T00:52:56.303Z,1017.18
2023-01-25T00:53:56.274Z,1017.15
2023-01-25T00:54:56.281Z,1017.17
2023-01-25T00:55:56.274Z,1017.15
2023-01-25T00:56:56.286Z,1017.14
2023-01-25T00:57:56.254Z,1017.16
2023-01-25T00:58:56.249Z,1017.16
2023-01-25T00:59:56.219Z,1017.12
2023-01-25T01:00:56.240Z,1017.15
2023-01-25T01:01:56.174Z,1017.13
2023-01-25T01:02:56.166Z,1017.17
2023-01-25T01:03:56.246Z,1017.12
2023-01-25T01:04:56.218Z,1017.14
2023-01-25T01:05:56.134Z,1017.19
2023-01-25T01:06:56.138Z,1017.14
2023-01-25T01:07:56.153Z,1017.15
2023-01-25T01:08:56.117Z,1017.14
2023-01-25T01:09:56.086Z,1017.13
2023-01-25T01:10:56.071Z,1017.13
2023-01-25T01:11:56.081Z,1017.11
2023-01-25T01:12:56.078Z,1017.11
2023-01-25T01:13:56.039Z,1017.11
2023-01-25T01:14:56.057Z,1017.10
2023-01-25T01:15:56.063Z,1017.12
2023-01-25T01:16:58.011Z,1017.13
2023-01-25T01:17:56.005Z,1017.07
2023-01-25T01:18:56.008Z,1017.12
2023-01-25T01:19:55.996Z,1017.12
2023-01-25T01:20:55.970Z,1017.10
2023-01-25T01:21:55.988Z,1017.10
2023-01-25T01:22:55.941Z,1017.14
2023-01-25T01:23:55.982Z,1017.25
2023-01-25T01:24:55.930Z,1017.19
2023-01-25T01:25:55.944Z,1017.26
2023-01-25T01:26:55.927Z,1017.20
2023-01-25T01:27:55.895Z,1017.22
2023-01-25T01:28:55.890Z,1017.20
2023-01-25T01:29:55.897Z,1017.20
2023-01-25T01:30:55.899Z,1017.19
2023-01-25T01:31:55.950Z,1017.23
2023-01-25T01:32:55.956Z,1017.12
2023-01-25T01:33:55.822Z,1017.18
2023-01-25T01:34:55.815Z,1017.14
2023-01-25T01:35:55.823Z,1017.11
2023-01-25T01:36:55.812Z,1017.08
2023-01-25T01:37:55.780Z,1017.08
2023-01-25T01:38:55.762Z,1017.07
2023-01-25T01:39:55.755Z,1017.10
2023-01-25T01:40:55.738Z,1017.05
2023-01-25T01:41:55.771Z,1017.04
2023-01-25T01:42:55.729Z,1017.08
2023-01-25T01:43:55.736Z,1017.06
2023-01-25T01:44:55.739Z,1017.05
2023-01-25T01:45:55.786Z,1017.05
2023-01-25T01:46:55.699Z,1017.02
2023-01-25T01:47:55.675Z,1017.01
2023-01-25T01:48:55.649Z,1016.98
2023-01-25T01:49:55.652Z,1016.93
2023-01-25T01:50:55.659Z,1017.03
2023-01-25T01:51:55.640Z,1017.01
2023-01-25T01:52:55.627Z,1017.05
2023-01-25T01:53:55.617Z,1017.05
2023-01-25T01:54:55.594Z,1017.02
2023-01-25T01:55:55.579Z,1017.06
2023-01-25T01:56:55.580Z,1017.07
2023-01-25T01:57:55.559Z,1017.09
2023-01-25T01:58:55.555Z,1017.06
2023-01-25T01:59:55.541Z,1017.08
2023-01-25T02:00:55.563Z,1017.04
2023-01-25T02:01:55.547Z,1017.07
2023-01-25T02:02:55.649Z,1017.07
2023-01-25T02:03:55.499Z,1017.05
2023-01-25T02:04:55.480Z,1017.02
2023-01-25T02:05:55.473Z,1017.01
2023-01-25T02:06:55.476Z,1017.04
2023-01-25T02:07:55.449Z,1017.01
2023-01-25T02:08:55.435Z,1017.00
2023-01-25T02:09:55.435Z,1016.98
2023-01-25T02:10:55.417Z,1016.94
2023-01-25T02:11:55.436Z,1016.94
2023-01-25T02:12:55.433Z,1016.94
2023-01-25T02:13:55.411Z,1016.92
2023-01-25T02:14:55.374Z,1016.94
2023-01-25T02:15:55.450Z,1016.94
2023-01-25T02:16:55.372Z,1016.97
2023-01-25T02:17:55.362Z,1016.96
2023-01-25T02:18:55.324Z,1016.93
2023-01-25T02:19:55.318Z,1016.93
2023-01-25T02:20:57.183Z,1016.93
2023-01-25T02:21:55.339Z,1016.90
2023-01-25T02:22:55.304Z,1016.94
2023-01-25T02:23:55.342Z,1016.93
2023-01-25T02:24:55.284Z,1016.95
2023-01-25T02:25:55.256Z,1016.96
2023-01-25T02:26:55.270Z,1016.93
2023-01-25T02:27:55.305Z,1016.89
2023-01-25T02:28:55.220Z,1016.89
2023-01-25T02:29:55.228Z,1016.89
2023-01-25T02:30:56.505Z,1016.88
2023-01-25T02:31:55.256Z,1016.88
2023-01-25T02:32:55.212Z,1016.88
2023-01-25T02:33:55.161Z,1016.84
2023-01-25T02:34:55.159Z,1016.81
2023-01-25T02:35:55.164Z,1016.76
2023-01-25T02:36:55.132Z,1016.79
2023-01-25T02:37:55.119Z,1016.73
2023-01-25T02:38:55.151Z,1016.72
2023-01-25T02:39:55.091Z,1016.67
2023-01-25T02:40:55.108Z,1016.65
2023-01-25T02:41:55.092Z,1016.64
2023-01-25T02:42:55.063Z,1016.57
2023-01-25T02:43:55.112Z,1016.55
2023-01-25T02:44:55.048Z,1016.56
2023-01-25T02:45:55.196Z,1016.53
2023-01-25T02:46:55.062Z,1016.48
2023-01-25T02:47:55.021Z,1016.46
2023-01-25T02:48:55.032Z,1016.47
2023-01-25T02:49:54.982Z,1016.46
2023-01-25T02:50:54.972Z,1016.43
2023-01-25T02:51:55.008Z,1016.45
2023-01-25T02:52:55.000Z,1016.46
2023-01-25T02:53:54.943Z,1016.45
2023-01-25T02:54:54.926Z,1016.45
2023-01-25T02:55:54.915Z,1016.44
2023-01-25T02:56:54.941Z,1016.42
2023-01-25T02:57:54.898Z,1016.35
2023-01-25T02:58:54.906Z,1016.38
2023-01-25T02:59:54.877Z,1016.30
2023-01-25T03:00:54.868Z,1016.31
2023-01-25T03:01:55.026Z,1016.31
2023-01-25T03:02:54.870Z,1016.30
2023-01-25T03:03:54.842Z,1016.30
2023-01-25T03:04:54.846Z,1016.32
2023-01-25T03:05:54.806Z,1016.31
2023-01-25T03:06:54.824Z,1016.28
2023-01-25T03:07:54.819Z,1016.27
2023-01-25T03:08:54.779Z,1016.25
2023-01-25T03:09:54.771Z,1016.27
2023-01-25T03:10:54.752Z,1016.21
2023-01-25T03:11:54.790Z,1016.26
2023-01-25T03:12:54.764Z,1016.23
2023-01-25T03:13:54.721Z,1016.18
2023-01-25T03:14:54.717Z,1016.19
2023-01-25T03:15:54.726Z,1016.17
2023-01-25T03:16:54.724Z,1016.10
2023-01-25T03:17:54.682Z,1016.18
2023-01-25T03:18:54.696Z,1016.14
2023-01-25T03:19:54.654Z,1016.13
2023-01-25T03:20:54.677Z,1016.18
2023-01-25T03:21:54.673Z,1016.16
2023-01-25T03:22:54.621Z,1016.12
2023-01-25T03:23:54.674Z,1016.17
2023-01-25T03:24:54.619Z,1016.13
2023-01-25T03:25:54.593Z,1016.12
2023-01-25T03:26:54.595Z,1016.12
2023-01-25T03:27:54.573Z,1016.14
2023-01-25T03:28:54.581Z,1016.11
2023-01-25T03:29:54.556Z,1016.09
2023-01-25T03:30:54.553Z,1016.10
2023-01-25T03:31:54.696Z,1016.06
2023-01-25T03:32:54.539Z,1016.08
2023-01-25T03:33:54.538Z,1016.04
2023-01-25T03:34:54.492Z,1016.04
2023-01-25T03:35:54.511Z,1016.03
2023-01-25T03:36:54.491Z,1016.02
2023-01-25T03:37:54.514Z,1016.02
2023-01-25T03:38:54.482Z,1016.00
2023-01-25T03:39:54.456Z,1015.98
2023-01-25T03:40:54.422Z,1015.97
2023-01-25T03:41:54.424Z,1015.96
2023-01-25T03:42:54.398Z,1015.99
2023-01-25T03:43:54.427Z,1016.03
2023-01-25T03:44:54.395Z,1016.03
2023-01-25T03:45:54.365Z,1016.05
2023-01-25T03:46:54.462Z,1016.02
2023-01-25T03:47:54.344Z,1016.03
2023-01-25T03:48:54.381Z,1016.04
2023-01-25T03:49:54.327Z,1016.00
2023-01-25T03:50:54.322Z,1016.01
2023-01-25T03:51:54.309Z,1016.00
2023-01-25T03:52:54.315Z,1016.02
2023-01-25T03:53:54.285Z,1016.03
2023-01-25T03:54:54.319Z,1016.05
2023-01-25T03:55:54.268Z,1016.00
2023-01-25T03:56:54.253Z,1016.01
2023-01-25T03:57:54.239Z,1016.01
2023-01-25T03:58:54.233Z,1016.01
2023-01-25T03:59:54.271Z,1016.01
2023-01-25T04:00:54.253Z,1016.01
2023-01-25T04:01:54.276Z,1016.06
2023-01-25T04:02:54.183Z,1016.00
2023-01-25T04:03:54.178Z,1016.00
2023-01-25T04:04:54.199Z,1015.97
2023-01-25T04:05:54.161Z,1015.96
2023-01-25T04:06:54.136Z,1015.96
2023-01-25T04:07:54.129Z,1015.92
2023-01-25T04:08:54.137Z,1015.99
2023-01-25T04:09:54.234Z,1015.99
2023-01-25T04:10:54.107Z,1015.96
2023-01-25T04:11:54.121Z,1016.04
2023-01-25T04:12:54.073Z,1016.04
2023-01-25T04:13:54.065Z,1016.05
2023-01-25T04:14:54.046Z,1016.03
2023-01-25T04:15:54.059Z,1016.08
2023-01-25T04:16:54.093Z,1016.02
2023-01-25T04:17:54.031Z,1016.02
2023-01-25T04:18:54.032Z,1016.03
2023-01-25T04:19:54.023Z,1015.96
2023-01-25T04:20:54.000Z,1015.96
2023-01-25T04:21:54.009Z,1015.95
2023-01-25T04:22:53.995Z,1015.93
2023-01-25T04:23:54.025Z,1015.92
2023-01-25T04:24:53.969Z,1015.89
2023-01-25T04:25:53.934Z,1015.86
2023-01-25T04:26:53.920Z,1015.83
2023-01-25T04:27:54.027Z,1015.80
2023-01-25T04:28:53.904Z,1015.79
2023-01-25T04:29:53.885Z,1015.78
2023-01-25T04:30:53.881Z,1015.80
2023-01-25T04:31:53.899Z,1015.75
2023-01-25T04:32:53.886Z,1015.77
2023-01-25T04:33:53.872Z,1015.78
2023-01-25T04:34:53.850Z,1015.73
2023-01-25T04:35:53.830Z,1015.68
2023-01-25T04:36:53.808Z,1015.70
2023-01-25T04:37:53.803Z,1015.70
2023-01-25T04:38:53.824Z,1015.70
2023-01-25T04:39:53.799Z,1015.69
2023-01-25T04:40:53.797Z,1015.67
2023-01-25T04:41:53.766Z,1015.64
2023-01-25T04:42:53.746Z,1015.69
2023-01-25T04:43:53.760Z,1015.69
2023-01-25T04:44:53.749Z,1015.70
2023-01-25T04:45:53.739Z,1015.63
2023-01-25T04:46:53.710Z,1015.68
2023-01-25T04:47:53.704Z,1015.69
2023-01-25T04:48:53.711Z,1015.66
2023-01-25T04:49:53.667Z,1015.67
2023-01-25T04:50:53.668Z,1015.69
2023-01-25T04:51:53.648Z,1015.65
2023-01-25T04:52:53.642Z,1015.61
2023-01-25T04:53:53.652Z,1015.66
2023-01-25T04:54:53.613Z,1015.61
2023-01-25T04:55:53.610Z,1015.68
2023-01-25T04:56:53.607Z,1015.68
2023-01-25T04:57:53.581Z,1015.64
2023-01-25T04:58:53.591Z,1015.60
2023-01-25T04:59:53.561Z,1015.61
2023-01-25T05:00:53.621Z,1015.60
2023-01-25T05:01:53.539Z,1015.59
2023-01-25T05:02:53.521Z,1015.61
2023-01-25T05:03:53.522Z,1015.58
2023-01-25T05:04:53.532Z,1015.62
2023-01-25T05:05:53.523Z,1015.58
2023-01-25T05:06:53.480Z,1015.56
2023-01-25T05:07:53.479Z,1015.61
2023-01-25T05:08:53.462Z,1015.57
2023-01-25T05:09:53.448Z,1015.55
2023-01-25T05:10:53.462Z,1015.53
2023-01-25T05:11:53.432Z,1015.53
2023-01-25T05:12:53.444Z,1015.53
2023-01-25T05:13:53.434Z,1015.53
2023-01-25T05:14:53.396Z,1015.48
2023-01-25T05:15:53.407Z,1015.47
2023-01-25T05:16:53.467Z,1015.51
2023-01-25T05:17:53.399Z,1015.51
2023-01-25T05:18:53.414Z,1015.51
2023-01-25T05:19:53.339Z,1015.52
2023-01-25T05:20:53.350Z,1015.52
2023-01-25T05:21:53.444Z,1015.55
2023-01-25T05:22:53.308Z,1015.57
2023-01-25T05:23:53.323Z,1015.55
2023-01-25T05:24:53.284Z,1015.52
2023-01-25T05:25:53.295Z,1015.49
2023-01-25T05:26:53.280Z,1015.50
2023-01-25T05:27:53.258Z,1015.50
2023-01-25T05:28:53.251Z,1015.49
2023-01-25T05:29:53.238Z,1015.52
2023-01-25T05:30:53.336Z,1015.52
2023-01-25T05:31:53.233Z,1015.51
2023-01-25T05:32:53.195Z,1015.49
2023-01-25T05:33:53.187Z,1015.54
2023-01-25T05:34:53.188Z,1015.51
2023-01-25T05:35:53.173Z,1015.48
2023-01-25T05:36:53.160Z,1015.49
2023-01-25T05:37:53.139Z,1015.47
2023-01-25T05:38:53.129Z,1015.47
2023-01-25T05:39:53.155Z,1015.46
2023-01-25T05:40:53.127Z,1015.46
2023-01-25T05:41:53.126Z,1015.45
2023-01-25T05:42:53.079Z,1015.48
2023-01-25T05:43:53.073Z,1015.44
2023-01-25T05:44:53.108Z,1015.46
2023-01-25T05:45:53.227Z,1015.44
2023-01-25T05:46:53.060Z,1015.49
2023-01-25T05:47:53.035Z,1015.44
2023-01-25T05:48:53.036Z,1015.45
2023-01-25T05:49:53.021Z,1015.42
2023-01-25T05:50:53.017Z,1015.43
2023-01-25T05:51:53.017Z,1015.42
2023-01-25T05:52:52.980Z,1015.40
2023-01-25T05:53:52.980Z,1015.40
2023-01-25T05:54:52.947Z,1015.42
2023-01-25T05:55:52.953Z,1015.39
2023-01-25T05:56:52.974Z,1015.36
2023-01-25T05:57:53.886Z,1015.39
2023-01-25T05:58:52.905Z,1015.35
2023-01-25T05:59:52.916Z,1015.37
2023-01-25T06:00:52.906Z,1015.34
2023-01-25T06:01:52.935Z,1015.29
2023-01-25T06:02:53.000Z,1015.35
2023-01-25T06:03:52.858Z,1015.32
2023-01-25T06:04:52.861Z,1015.37
2023-01-25T06:05:52.833Z,1015.35
2023-01-25T06:06:52.811Z,1015.34
2023-01-25T06:07:52.832Z,1015.33
2023-01-25T06:08:52.917Z,1015.29
2023-01-25T06:09:52.861Z,1015.26
2023-01-25T06:10:52.777Z,1015.33
2023-01-25T06:11:52.772Z,1015.30
2023-01-25T06:12:52.750Z,1015.33
2023-01-25T06:13:52.786Z,1015.26
2023-01-25T06:14:52.728Z,1015.24
2023-01-25T06:15:52.761Z,1015.24
2023-01-25T06:16:52.754Z,1015.25
2023-01-25T06:17:52.705Z,1015.24
2023-01-25T06:18:52.713Z,1015.25
2023-01-25T06:19:52.682Z,1015.26
2023-01-25T06:20:52.665Z,1015.21
2023-01-25T06:21:52.678Z,1015.23
2023-01-25T06:22:52.644Z,1015.21
2023-01-25T06:23:52.747Z,1015.24
2023-01-25T06:24:52.646Z,1015.25
2023-01-25T06:25:52.614Z,1015.24
2023-01-25T06:26:52.637Z,1015.20
2023-01-25T06:27:52.593Z,1015.19
2023-01-25T06:28:53.360Z,1015.21
2023-01-25T06:29:52.665Z,1015.20
2023-01-25T06:30:52.586Z,1015.21
2023-01-25T06:31:52.587Z,1015.20
2023-01-25T06:32:52.562Z,1015.20
2023-01-25T06:33:52.563Z,1015.17
2023-01-25T06:34:52.514Z,1015.17
2023-01-25T06:35:52.514Z,1015.19
2023-01-25T06:36:52.514Z,1015.18
2023-01-25T06:37:52.510Z,1015.19
2023-01-25T06:38:52.467Z,1015.19
2023-01-25T06:39:52.482Z,1015.22
2023-01-25T06:40:52.461Z,1015.18
2023-01-25T06:41:52.448Z,1015.20
2023-01-25T06:42:52.423Z,1015.20
2023-01-25T06:43:52.470Z,1015.18
2023-01-25T06:44:52.433Z,1015.13
2023-01-25T06:45:52.400Z,1015.16
2023-01-25T06:46:52.446Z,1015.14
2023-01-25T06:47:52.385Z,1015.12
2023-01-25T06:48:52.412Z,1015.12
2023-01-25T06:49:52.351Z,1015.10
2023-01-25T06:50:52.340Z,1015.11
2023-01-25T06:51:52.361Z,1015.11
2023-01-25T06:52:52.344Z,1015.12
2023-01-25T06:53:52.318Z,1015.08
2023-01-25T06:54:52.291Z,1015.07
2023-01-25T06:55:52.284Z,1015.01
2023-01-25T06:56:52.293Z,1015.01
2023-01-25T06:57:52.276Z,1015.01
2023-01-25T06:58:52.260Z,1014.97
2023-01-25T06:59:52.251Z,1014.98
2023-01-25T07:00:52.224Z,1014.99
2023-01-25T07:01:52.359Z,1014.97
2023-01-25T07:02:52.289Z,1015.01
2023-01-25T07:03:52.199Z,1015.00
2023-01-25T07:04:52.202Z,1014.98
2023-01-25T07:05:52.169Z,1014.97
2023-01-25T07:06:52.161Z,1014.97
2023-01-25T07:07:52.190Z,1014.96
2023-01-25T07:08:52.155Z,1014.98
2023-01-25T07:09:52.135Z,1014.97
2023-01-25T07:10:52.122Z,1014.97
2023-01-25T07:11:52.119Z,1014.98
2023-01-25T07:12:52.090Z,1014.95
2023-01-25T07:13:52.102Z,1014.91
2023-01-25T07:14:52.071Z,1014.90
2023-01-25T07:15:52.068Z,1014.93
2023-01-25T07:16:52.055Z,1014.89
2023-01-25T07:17:52.071Z,1014.89
2023-01-25T07:18:52.033Z,1014.88
2023-01-25T07:19:52.032Z,1014.95
2023-01-25T07:20:52.039Z,1014.88
2023-01-25T07:21:51.996Z,1014.92
2023-01-25T07:22:51.985Z,1014.84
2023-01-25T07:23:52.036Z,1014.88
2023-01-25T07:24:51.993Z,1014.89
2023-01-25T07:25:51.975Z,1014.91
2023-01-25T07:26:51.970Z,1014.91
2023-01-25T07:27:51.943Z,1014.94
2023-01-25T07:28:51.963Z,1014.93
2023-01-25T07:29:51.925Z,1014.90
2023-01-25T07:30:51.922Z,1014.91
2023-01-25T07:31:51.938Z,1014.91
2023-01-25T07:32:51.877Z,1014.89
2023-01-25T07:33:51.869Z,1014.89
2023-01-25T07:34:51.853Z,1014.90
2023-01-25T07:35:51.863Z,1014.89
2023-01-25T07:36:51.862Z,1014.90
2023-01-25T07:37:51.819Z,1014.92
2023-01-25T07:38:51.814Z,1014.92
2023-01-25T07:39:51.795Z,1014.89
2023-01-25T07:40:51.781Z,1014.91
2023-01-25T07:41:51.793Z,1014.92
2023-01-25T07:42:51.777Z,1014.90
2023-01-25T07:43:51.758Z,1014.90
2023-01-25T07:44:51.757Z,1014.88
2023-01-25T07:45:51.750Z,1014.84
2023-01-25T07:46:51.722Z,1014.87
2023-01-25T07:47:51.711Z,1014.87
2023-01-25T07:48:51.727Z,1014.84
2023-01-25T07:49:51.702Z,1014.85
2023-01-25T07:50:51.708Z,1014.85
2023-01-25T07:51:51.679Z,1014.86
2023-01-25T07:52:51.696Z,1014.89
2023-01-25T07:53:51.642Z,1014.87
2023-01-25T07:54:51.632Z,1014.87
2023-01-25T07:55:51.649Z,1014.88
2023-01-25T07:56:51.620Z,1014.88
2023-01-25T07:57:51.632Z,1014.88
2023-01-25T07:58:51.611Z,1014.88
2023-01-25T07:59:51.578Z,1014.87
2023-01-25T08:00:51.570Z,1014.88
2023-01-25T08:01:51.568Z,1014.85
2023-01-25T08:02:51.550Z,1014.90
2023-01-25T08:03:51.556Z,1014.88
2023-01-25T08:04:51.529Z,1014.89
2023-01-25T08:05:51.597Z,1014.82
2023-01-25T08:06:51.536Z,1014.90
2023-01-25T08:07:51.492Z,1014.89
2023-01-25T08:08:51.556Z,1014.93
2023-01-25T08:09:51.481Z,1014.91
2023-01-25T08:10:51.488Z,1014.93
2023-01-25T08:11:51.462Z,1014.92
2023-01-25T08:12:51.441Z,1014.95
2023-01-25T08:13:51.428Z,1014.93
2023-01-25T08:14:51.415Z,1014.92
2023-01-25T08:15:51.402Z,1014.94
2023-01-25T08:16:51.417Z,1014.94
2023-01-25T08:17:51.407Z,1014.95
2023-01-25T08:18:51.371Z,1014.94
2023-01-25T08:19:51.353Z,1014.98
2023-01-25T08:20:51.363Z,1014.93
2023-01-25T08:21:51.431Z,1015.00
2023-01-25T08:22:51.328Z,1014.99
2023-01-25T08:23:51.346Z,1015.03
2023-01-25T08:24:51.359Z,1014.99
2023-01-25T08:25:51.304Z,1015.00
2023-01-25T08:26:51.290Z,1014.93
2023-01-25T08:27:51.295Z,1014.97
2023-01-25T08:28:51.273Z,1014.93
2023-01-25T08:29:51.244Z,1014.90
2023-01-25T08:30:57.202Z,1014.96
2023-01-25T08:31:52.318Z,1014.92
2023-01-25T08:32:51.224Z,1014.94
2023-01-25T08:33:51.234Z,1014.91
2023-01-25T08:34:51.222Z,1014.87
2023-01-25T08:35:51.190Z,1014.88
2023-01-25T08:37:51.185Z,1014.88
2023-01-25T08:38:51.145Z,1014.89
2023-01-25T08:39:51.139Z,1014.90
2023-01-25T08:40:51.176Z,1014.83
2023-01-25T08:41:51.119Z,1014.79
2023-01-25T08:42:51.123Z,1014.80
2023-01-25T08:43:51.091Z,1014.80
2023-01-25T08:44:51.083Z,1014.80
2023-01-25T08:45:51.074Z,1014.81
2023-01-25T08:46:51.092Z,1014.77
2023-01-25T08:47:51.058Z,1014.79
2023-01-25T08:48:51.039Z,1014.79
2023-01-25T08:49:51.034Z,1014.77
2023-01-25T08:50:51.021Z,1014.75
2023-01-25T08:51:51.031Z,1014.76
2023-01-25T08:52:50.991Z,1014.76
2023-01-25T08:53:50.999Z,1014.73
2023-01-25T08:54:50.980Z,1014.73
2023-01-25T08:55:51.102Z,1014.71
2023-01-25T08:56:50.992Z,1014.68
2023-01-25T08:57:50.947Z,1014.70
2023-01-25T08:58:50.980Z,1014.69
2023-01-25T08:59:50.924Z,1014.67
2023-01-25T09:00:50.907Z,1014.64
2023-01-25T09:01:50.894Z,1014.63
2023-01-25T09:02:50.892Z,1014.67
2023-01-25T09:03:51.450Z,1014.65
2023-01-25T09:04:50.868Z,1014.66
2023-01-25T09:05:50.865Z,1014.70
2023-01-25T09:06:50.842Z,1014.65
2023-01-25T09:07:50.842Z,1014.67
2023-01-25T09:08:50.834Z,1014.61
2023-01-25T09:09:50.822Z,1014.69
2023-01-25T09:10:50.816Z,1014.63
2023-01-25T09:11:50.786Z,1014.60
2023-01-25T09:12:50.789Z,1014.62
2023-01-25T09:13:50.834Z,1014.59
2023-01-25T09:14:50.758Z,1014.57
2023-01-25T09:15:50.748Z,1014.55
2023-01-25T09:16:50.751Z,1014.56
2023-01-25T09:17:50.723Z,1014.54
2023-01-25T09:18:51.012Z,1014.52
2023-01-25T09:20:50.684Z,1014.58
2023-01-25T09:21:50.799Z,1014.59
2023-01-25T09:22:50.674Z,1014.60
2023-01-25T09:24:04.471Z,1014.63
2023-01-25T09:24:51.705Z,1014.51
2023-01-25T09:25:50.642Z,1014.53
2023-01-25T09:26:59.391Z,1014.51
2023-01-25T09:27:51.612Z,1014.47
2023-01-25T09:28:50.615Z,1014.49
2023-01-25T09:30:01.417Z,1014.47
2023-01-25T09:31:06.788Z,1014.45
2023-01-25T09:31:51.653Z,1014.46
2023-01-25T09:32:50.783Z,1014.49
2023-01-25T09:33:50.557Z,1014.47
2023-01-25T09:34:50.536Z,1014.45
2023-01-25T09:35:50.519Z,1014.47
2023-01-25T09:36:50.540Z,1014.49
2023-01-25T09:37:50.509Z,1014.44
2023-01-25T09:38:50.492Z,1014.47
2023-01-25T09:39:50.560Z,1014.42
2023-01-25T09:40:50.468Z,1014.45
2023-01-25T09:41:50.479Z,1014.45
2023-01-25T09:42:50.445Z,1014.44
2023-01-25T09:43:50.442Z,1014.36
2023-01-25T09:44:50.472Z,1014.34
2023-01-25T09:45:50.425Z,1014.39
2023-01-25T09:46:50.412Z,1014.32
2023-01-25T09:47:50.389Z,1014.39
2023-01-25T09:48:59.368Z,1014.30
2023-01-25T09:49:51.386Z,1014.30
2023-01-25T09:50:50.375Z,1014.30
2023-01-25T09:51:50.354Z,1014.30
2023-01-25T09:52:50.338Z,1014.33
2023-01-25T09:53:50.345Z,1014.32
2023-01-25T09:54:50.321Z,1014.33
2023-01-25T09:55:50.332Z,1014.30
2023-01-25T09:56:50.300Z,1014.31
2023-01-25T09:57:50.310Z,1014.26
2023-01-25T09:58:50.269Z,1014.18
2023-01-25T09:59:50.259Z,1014.22
2023-01-25T10:00:50.283Z,1014.22
2023-01-25T10:01:50.284Z,1014.25
2023-01-25T10:02:50.248Z,1014.22
2023-01-25T10:03:50.211Z,1014.19
2023-01-25T10:04:50.224Z,1014.21
2023-01-25T10:05:50.243Z,1014.25
2023-01-25T10:06:59.831Z,1014.22
2023-01-25T10:07:51.171Z,1014.23
2023-01-25T10:08:50.158Z,1014.19
2023-01-25T10:09:50.163Z,1014.16
2023-01-25T10:10:50.137Z,1014.16
2023-01-25T10:11:50.142Z,1014.16
2023-01-25T10:12:50.121Z,1014.09
2023-01-25T10:13:50.123Z,1014.11
2023-01-25T10:14:50.099Z,1014.10
2023-01-25T10:15:50.100Z,1014.07
2023-01-25T10:16:50.195Z,1014.06
2023-01-25T10:17:50.057Z,1014.03
2023-01-25T10:18:50.057Z,1014.04
2023-01-25T10:19:50.058Z,1013.95
2023-01-25T10:20:50.041Z,1014.01
2023-01-25T10:21:50.011Z,1013.94
2023-01-25T10:22:50.012Z,1013.95
2023-01-25T10:23:50.017Z,1013.94
2023-01-25T10:24:50.000Z,1013.95
2023-01-25T10:25:49.999Z,1013.85
2023-01-25T10:26:49.961Z,1013.89
2023-01-25T10:27:49.958Z,1013.86
2023-01-25T10:28:49.951Z,1013.86
2023-01-25T10:29:49.924Z,1013.77
2023-01-25T10:30:49.960Z,1013.76
2023-01-25T10:31:50.022Z,1013.79
2023-01-25T10:32:55.877Z,1013.79
2023-01-25T10:33:50.963Z,1013.81
2023-01-25T10:34:56.789Z,1013.76
2023-01-25T10:35:50.902Z,1013.78
2023-01-25T10:36:49.880Z,1013.76
2023-01-25T10:37:49.836Z,1013.74
2023-01-25T10:38:49.846Z,1013.71
2023-01-25T10:39:49.813Z,1013.65
2023-01-25T10:40:49.807Z,1013.68
2023-01-25T10:41:49.796Z,1013.69
2023-01-25T10:42:49.807Z,1013.68
2023-01-25T10:43:49.782Z,1013.64
2023-01-25T10:44:49.767Z,1013.63
2023-01-25T10:45:49.746Z,1013.67
2023-01-25T10:46:49.782Z,1013.61
2023-01-25T10:47:49.752Z,1013.60
2023-01-25T10:48:49.784Z,1013.58
2023-01-25T10:49:49.721Z,1013.60
2023-01-25T10:50:49.725Z,1013.56
2023-01-25T10:51:49.686Z,1013.56
2023-01-25T10:52:49.706Z,1013.54
2023-01-25T10:53:49.664Z,1013.47
2023-01-25T10:54:49.654Z,1013.47
2023-01-25T10:55:49.647Z,1013.47
2023-01-25T10:56:49.630Z,1013.43
2023-01-25T10:57:49.644Z,1013.43
2023-01-25T10:58:49.619Z,1013.41
2023-01-25T10:59:49.616Z,1013.39
2023-01-25T11:00:49.640Z,1013.39
2023-01-25T11:01:49.739Z,1013.36
2023-01-25T11:02:49.620Z,1013.32
2023-01-25T11:03:49.554Z,1013.33
2023-01-25T11:04:49.604Z,1013.28
2023-01-25T11:05:49.539Z,1013.25
2023-01-25T11:06:49.528Z,1013.20
2023-01-25T11:07:49.604Z,1013.19
2023-01-25T11:08:49.529Z,1013.17
2023-01-25T11:09:49.491Z,1013.11
2023-01-25T11:10:49.511Z,1013.11
2023-01-25T11:11:49.473Z,1013.06
2023-01-25T11:12:49.487Z,1013.04
2023-01-25T11:13:49.448Z,1013.01
2023-01-25T11:14:49.466Z,1013.02
2023-01-25T11:15:49.479Z,1012.98
2023-01-25T11:16:49.441Z,1012.96
2023-01-25T11:17:51.000Z,1012.92
2023-01-25T11:18:49.417Z,1012.89
2023-01-25T11:19:49.400Z,1012.86
2023-01-25T11:20:49.409Z,1012.85
2023-01-25T11:21:49.381Z,1012.89
2023-01-25T11:22:49.397Z,1012.84
2023-01-25T11:23:49.385Z,1012.85
2023-01-25T11:24:49.567Z,1012.83
2023-01-25T11:25:49.310Z,1012.81
2023-01-25T11:26:49.318Z,1012.85
2023-01-25T11:27:49.311Z,1012.83
2023-01-25T11:28:49.282Z,1012.78
2023-01-25T11:29:49.262Z,1012.77
2023-01-25T11:30:49.425Z,1012.74
2023-01-25T11:31:49.315Z,1012.70
2023-01-25T11:32:49.241Z,1012.67
2023-01-25T11:33:49.221Z,1012.68
2023-01-25T11:34:49.221Z,1012.61
2023-01-25T11:35:49.228Z,1012.63
2023-01-25T11:36:49.207Z,1012.63
2023-01-25T11:37:49.208Z,1012.60
2023-01-25T11:38:49.200Z,1012.60
2023-01-25T11:39:49.173Z,1012.59
2023-01-25T11:40:49.143Z,1012.62
2023-01-25T11:41:49.132Z,1012.63
2023-01-25T11:42:49.119Z,1012.59
2023-01-25T11:43:49.110Z,1012.64
2023-01-25T11:44:49.126Z,1012.59
2023-01-25T11:45:49.093Z,1012.50
2023-01-25T11:46:49.151Z,1012.50
2023-01-25T11:47:49.074Z,1012.51
2023-01-25T11:48:49.057Z,1012.47
2023-01-25T11:49:49.072Z,1012.48
2023-01-25T11:50:49.038Z,1012.44
2023-01-25T11:51:51.201Z,1012.43
2023-01-25T11:52:49.056Z,1012.34
2023-01-25T11:53:49.008Z,1012.30
2023-01-25T11:54:48.991Z,1012.30
2023-01-25T11:55:48.984Z,1012.25
2023-01-25T11:56:48.977Z,1012.29
2023-01-25T11:57:48.986Z,1012.24
2023-01-25T11:58:48.945Z,1012.23
2023-01-25T11:59:48.978Z,1012.21
2023-01-25T12:00:48.942Z,1012.18
2023-01-25T12:01:48.917Z,1012.20
2023-01-25T12:02:49.090Z,1012.18
2023-01-25T12:03:48.910Z,1012.19
2023-01-25T12:04:48.882Z,1012.14
2023-01-25T12:05:48.872Z,1012.15
2023-01-25T12:06:48.881Z,1012.10
2023-01-25T12:07:48.848Z,1012.08